Time;durP1;ratioP1;P1;durP2;ratioP2;P2;SDS_P1;SDS_P2;PMS_P1;PMS_P2;Temp;Humidity;BMP_temperature;BMP_pressure;BME280_temperature;BME280_humidity;BME280_pressure;Samples;Min_cycle;Max_cycle;Signal;HPM_P1;HPM_P2
2023/08/20 00:00:11;;;;;;;14.38;8.85;;;;;;;-148.88;100.00;-17125.47;4993644;28;20481;-88
2023/08/20 00:02:37;;;;;;;17.75;9.25;;;;;;;-148.88;100.00;-17125.47;4993884;28;20102;-88
2023/08/20 00:05:06;;;;;;;15.18;8.27;;;;;;;-148.88;100.00;-17125.47;4993510;28;20449;-88
2023/08/20 00:07:32;;;;;;;15.18;8.60;;;;;;;-148.88;100.00;-17125.47;4993675;28;20022;-87
2023/08/20 00:09:57;;;;;;;11.85;7.18;;;;;;;-148.88;100.00;-17125.47;4992792;28;20029;-89
2023/08/20 00:12:23;;;;;;;15.35;7.78;;;;;;;-148.88;100.00;-17125.47;4993733;28;20113;-90
2023/08/20 00:14:54;;;;;;;12.35;7.22;;;;;;;-148.88;100.00;-17125.47;4993413;28;20113;-88
2023/08/20 00:17:19;;;;;;;11.85;6.55;;;;;;;-148.88;100.00;-17125.47;4993241;28;20022;-88
2023/08/20 00:19:45;;;;;;;10.85;6.45;;;;;;;-148.88;100.00;-17125.47;4993210;28;20176;-88
2023/08/20 00:22:11;;;;;;;12.30;7.32;;;;;;;-148.88;100.00;-17125.47;4993224;28;20477;-88
2023/08/20 00:24:36;;;;;;;15.20;6.95;;;;;;;-148.88;100.00;-17125.47;4993125;28;20034;-88
2023/08/20 00:27:02;;;;;;;12.15;7.20;;;;;;;-148.88;100.00;-17125.47;4993186;28;20025;-88
2023/08/20 00:29:27;;;;;;;13.25;7.25;;;;;;;-148.88;100.00;-17125.47;4994482;28;20026;-89
2023/08/20 00:31:52;;;;;;;13.18;6.45;;;;;;;-148.88;100.00;-17125.47;4993516;28;20105;-89
2023/08/20 00:34:18;;;;;;;13.38;6.72;;;;;;;-148.88;100.00;-17125.47;4993932;28;20029;-88
2023/08/20 00:36:43;;;;;;;11.15;6.78;;;;;;;-148.88;100.00;-17125.47;4993332;28;20115;-88
2023/08/20 00:39:08;;;;;;;9.43;5.95;;;;;;;-148.88;100.00;-17125.47;4993466;28;20030;-90
2023/08/20 00:41:34;;;;;;;10.43;6.05;;;;;;;-148.88;100.00;-17125.47;4993241;28;20540;-89
2023/08/20 00:43:59;;;;;;;10.13;6.63;;;;;;;-148.88;100.00;-17125.47;4992943;28;20382;-88
2023/08/20 00:46:24;;;;;;;8.65;5.80;;;;;;;-148.88;100.00;-17125.47;4993205;28;20033;-88
2023/08/20 00:48:50;;;;;;;9.43;6.00;;;;;;;-148.88;100.00;-17125.47;4992950;28;20026;-89
2023/08/20 00:51:16;;;;;;;12.35;5.70;;;;;;;-148.88;100.00;-17125.47;4992822;28;20026;-88
2023/08/20 00:53:42;;;;;;;10.27;6.03;;;;;;;-148.88;100.00;-17125.47;4993185;28;20496;-89
2023/08/20 00:56:07;;;;;;;9.38;5.78;;;;;;;-148.88;100.00;-17125.47;4993762;28;20112;-86
2023/08/20 00:58:33;;;;;;;10.15;5.43;;;;;;;-148.88;100.00;-17125.47;4972414;23;20051;-76
2023/08/20 01:00:58;;;;;;;8.90;5.68;;;;;;;-148.88;100.00;-17125.47;4955449;28;20031;-76
2023/08/20 01:03:24;;;;;;;9.35;6.25;;;;;;;-148.88;100.00;-17125.47;4955085;29;20031;-76
2023/08/20 01:05:58;;;;;;;12.98;5.85;;;;;;;-148.88;100.00;-17125.47;4953547;28;20500;-76
2023/08/20 01:08:35;;;;;;;9.50;5.40;;;;;;;-148.88;100.00;-17125.47;4954813;28;20114;-76
2023/08/20 01:11:29;;;;;;;10.43;5.78;;;;;;;-148.88;100.00;-17125.47;4955075;29;20023;-76
2023/08/20 01:13:55;;;;;;;13.02;6.43;;;;;;;-148.88;100.00;-17125.47;4954468;29;20050;-76
2023/08/20 01:16:20;;;;;;;11.70;6.32;;;;;;;-148.88;100.00;-17125.47;4953434;29;20024;-76
2023/08/20 01:18:47;;;;;;;13.70;6.32;;;;;;;-148.88;100.00;-17125.47;4954809;28;20052;-76
2023/08/20 01:21:38;;;;;;;9.00;6.13;;;;;;;-148.88;100.00;-17125.47;4954863;28;20085;-76
2023/08/20 01:24:30;;;;;;;11.63;6.35;;;;;;;-148.88;100.00;-17125.47;4958353;29;20055;-76
2023/08/20 01:27:19;;;;;;;15.05;6.70;;;;;;;-148.88;100.00;-17125.47;4958514;28;20078;-77
2023/08/20 01:29:45;;;;;;;10.70;7.03;;;;;;;-148.88;100.00;-17125.47;4958688;29;20027;-76
2023/08/20 01:32:11;;;;;;;12.18;8.50;;;;;;;-148.88;100.00;-17125.47;4958585;28;20074;-76
2023/08/20 01:34:37;;;;;;;15.30;9.57;;;;;;;-148.88;100.00;-17125.47;4958750;29;20426;-76
2023/08/20 01:37:03;;;;;;;13.82;8.18;;;;;;;-148.88;100.00;-17125.47;4958385;28;20023;-76
2023/08/20 01:39:28;;;;;;;15.20;9.30;;;;;;;-148.88;100.00;-17125.47;4958407;29;20031;-76
2023/08/20 01:41:53;;;;;;;18.88;8.18;;;;;;;-148.88;100.00;-17125.47;4957074;29;20123;-76
2023/08/20 01:44:19;;;;;;;16.13;8.23;;;;;;;-148.88;100.00;-17125.47;4958585;28;20023;-76
2023/08/20 01:46:44;;;;;;;13.38;7.95;;;;;;;-148.88;100.00;-17125.47;4956939;28;20023;-77
2023/08/20 01:49:09;;;;;;;14.95;8.00;;;;;;;-148.88;100.00;-17125.47;4958296;28;20114;-76
2023/08/20 01:51:36;;;;;;;11.80;7.30;;;;;;;-148.88;100.00;-17125.47;4958462;29;20070;-76
2023/08/20 01:54:02;;;;;;;10.75;7.38;;;;;;;-148.88;100.00;-17125.47;4957040;29;20078;-76
2023/08/20 01:56:27;;;;;;;11.82;7.25;;;;;;;-148.88;100.00;-17125.47;4958273;28;20031;-76
2023/08/20 01:58:52;;;;;;;11.18;7.82;;;;;;;-148.88;100.00;-17125.47;4958343;28;20097;-76
2023/08/20 02:01:18;;;;;;;12.43;7.78;;;;;;;-148.88;100.00;-17125.47;4958104;28;20031;-76
2023/08/20 02:03:43;;;;;;;10.18;7.18;;;;;;;-148.88;100.00;-17125.47;4957940;29;20019;-76
2023/08/20 02:06:08;;;;;;;11.18;7.57;;;;;;;-148.88;100.00;-17125.47;4957863;29;20027;-76
2023/08/20 02:08:34;;;;;;;12.75;8.15;;;;;;;-148.88;100.00;-17125.47;4957839;28;20066;-76
2023/08/20 02:11:03;;;;;;;18.05;10.60;;;;;;;-148.88;100.00;-17125.47;4958046;29;20065;-76
2023/08/20 02:13:30;;;;;;;21.85;10.70;;;;;;;-148.88;100.00;-17125.47;4957790;28;20506;-76
2023/08/20 02:16:02;;;;;;;14.70;9.38;;;;;;;-148.88;100.00;-17125.47;4957865;28;20039;-76
2023/08/20 02:18:29;;;;;;;17.80;10.73;;;;;;;-148.88;100.00;-17125.47;4957636;28;20034;-76
2023/08/20 02:20:54;;;;;;;20.35;11.85;;;;;;;-148.88;100.00;-17125.47;4957937;28;20478;-76
2023/08/20 02:23:19;;;;;;;19.75;10.90;;;;;;;-148.88;100.00;-17125.47;4958182;28;20046;-76
2023/08/20 02:25:46;;;;;;;15.00;9.75;;;;;;;-148.88;100.00;-17125.47;4957818;28;20031;-76
2023/08/20 02:28:12;;;;;;;19.02;11.07;;;;;;;-148.88;100.00;-17125.47;4957502;28;20040;-76
2023/08/20 02:30:44;;;;;;;22.13;13.48;;;;;;;-148.88;100.00;-17125.47;4957537;28;20188;-76
2023/08/20 02:33:10;;;;;;;24.13;14.18;;;;;;;-148.88;100.00;-17125.47;4957200;28;20031;-76
2023/08/20 02:35:38;;;;;;;25.48;13.90;;;;;;;-148.88;100.00;-17125.47;4957529;28;20034;-76
2023/08/20 02:38:04;;;;;;;25.38;14.05;;;;;;;-148.88;100.00;-17125.47;4957431;28;20450;-76
2023/08/20 02:40:30;;;;;;;21.27;13.95;;;;;;;-148.88;100.00;-17125.47;4956122;28;20487;-76
2023/08/20 02:42:55;;;;;;;22.50;14.52;;;;;;;-148.88;100.00;-17125.47;4957278;28;20035;-76
2023/08/20 02:45:21;;;;;;;24.60;14.45;;;;;;;-148.88;100.00;-17125.47;4957283;28;20423;-76
2023/08/20 02:47:46;;;;;;;20.20;13.80;;;;;;;-148.88;100.00;-17125.47;4957227;28;20066;-76
2023/08/20 02:50:12;;;;;;;22.92;14.13;;;;;;;-148.88;100.00;-17125.47;4957386;28;20427;-76
2023/08/20 02:52:37;;;;;;;20.55;12.27;;;;;;;-148.88;100.00;-17125.47;4957094;28;20474;-76
2023/08/20 02:55:04;;;;;;;17.23;12.52;;;;;;;-148.88;100.00;-17125.47;4956998;28;20034;-76
2023/08/20 02:57:30;;;;;;;17.13;11.57;;;;;;;-148.88;100.00;-17125.47;4955606;28;20027;-76
2023/08/20 02:59:55;;;;;;;18.95;12.38;;;;;;;-148.88;100.00;-17125.47;4956930;28;20110;-76
2023/08/20 03:02:20;;;;;;;14.23;11.82;;;;;;;-148.88;100.00;-17125.47;4957183;28;20047;-76
2023/08/20 03:04:48;;;;;;;16.20;11.77;;;;;;;-148.88;100.00;-17125.47;4956888;28;20032;-76
2023/08/20 03:07:13;;;;;;;15.27;10.73;;;;;;;-148.88;100.00;-17125.47;4956771;28;20511;-77
2023/08/20 03:09:38;;;;;;;21.90;11.77;;;;;;;-148.88;100.00;-17125.47;4955709;29;20487;-76
2023/08/20 03:12:04;;;;;;;16.25;10.90;;;;;;;-148.88;100.00;-17125.47;4956940;28;20034;-76
2023/08/20 03:14:30;;;;;;;15.85;10.52;;;;;;;-148.88;100.00;-17125.47;4956666;28;20155;-76
2023/08/20 03:16:55;;;;;;;15.27;11.13;;;;;;;-148.88;100.00;-17125.47;4956555;28;20028;-77
2023/08/20 03:19:20;;;;;;;14.73;10.43;;;;;;;-148.88;100.00;-17125.47;4956624;28;20033;-76
2023/08/20 03:21:46;;;;;;;18.50;11.15;;;;;;;-148.88;100.00;-17125.47;4956497;28;20051;-76
2023/08/20 03:24:11;;;;;;;20.05;11.95;;;;;;;-148.88;100.00;-17125.47;4955253;28;20110;-76
2023/08/20 03:26:36;;;;;;;15.20;10.75;;;;;;;-148.88;100.00;-17125.47;4956905;28;20493;-76
2023/08/20 03:29:03;;;;;;;14.45;10.63;;;;;;;-148.88;100.00;-17125.47;4956663;28;20098;-76
2023/08/20 03:31:28;;;;;;;16.42;11.15;;;;;;;-148.88;100.00;-17125.47;4955130;28;20023;-76
2023/08/20 03:33:54;;;;;;;18.13;11.75;;;;;;;-148.88;100.00;-17125.47;4956420;28;20158;-76
2023/08/20 03:36:19;;;;;;;16.90;10.98;;;;;;;-148.88;100.00;-17125.47;4956448;28;20023;-76
2023/08/20 03:38:45;;;;;;;21.23;12.32;;;;;;;-148.88;100.00;-17125.47;4956140;28;20493;-76
2023/08/20 03:41:10;;;;;;;17.48;12.65;;;;;;;-148.88;100.00;-17125.47;4956422;28;20042;-76
2023/08/20 03:43:36;;;;;;;19.88;12.30;;;;;;;-148.88;100.00;-17125.47;4956170;29;20059;-76
2023/08/20 03:46:02;;;;;;;16.83;10.95;;;;;;;-148.88;100.00;-17125.47;4954017;28;20501;-76
2023/08/20 03:48:27;;;;;;;16.40;10.88;;;;;;;-148.88;100.00;-17125.47;4956509;28;20122;-76
2023/08/20 03:50:52;;;;;;;17.58;10.50;;;;;;;-148.88;100.00;-17125.47;4956240;28;20439;-76
2023/08/20 03:53:18;;;;;;;17.13;10.40;;;;;;;-148.88;100.00;-17125.47;4955971;28;20430;-76
2023/08/20 03:55:49;;;;;;;15.02;10.50;;;;;;;-148.88;100.00;-17125.47;4955915;28;20043;-76
2023/08/20 03:58:16;;;;;;;16.25;11.07;;;;;;;-148.88;100.00;-17125.47;4954456;28;20110;-76
2023/08/20 04:00:41;;;;;;;17.35;11.77;;;;;;;-148.88;100.00;-17125.47;4956083;28;20034;-76
2023/08/20 04:03:07;;;;;;;17.58;12.00;;;;;;;-148.88;100.00;-17125.47;4955736;28;20027;-76
2023/08/20 04:05:37;;;;;;;18.50;11.75;;;;;;;-148.88;100.00;-17125.47;4955026;28;20023;-76
2023/08/20 04:08:03;;;;;;;16.70;10.65;;;;;;;-148.88;100.00;-17125.47;4954432;28;20023;-76
2023/08/20 04:10:29;;;;;;;13.93;10.20;;;;;;;-148.88;100.00;-17125.47;4955952;28;20027;-76
2023/08/20 04:12:54;;;;;;;14.45;10.95;;;;;;;-148.88;100.00;-17125.47;4955623;28;20037;-76
2023/08/20 04:15:19;;;;;;;17.73;11.32;;;;;;;-148.88;100.00;-17125.47;4955521;28;20066;-76
2023/08/20 04:17:45;;;;;;;19.27;12.23;;;;;;;-148.88;100.00;-17125.47;4955473;28;20106;-76
2023/08/20 04:20:11;;;;;;;19.42;12.32;;;;;;;-148.88;100.00;-17125.47;4955541;28;20027;-76
2023/08/20 04:22:37;;;;;;;16.80;11.27;;;;;;;-148.88;100.00;-17125.47;4955482;28;20042;-76
2023/08/20 04:25:02;;;;;;;17.73;11.43;;;;;;;-148.88;100.00;-17125.47;4954429;28;20490;-76
2023/08/20 04:27:27;;;;;;;13.30;9.25;;;;;;;-148.88;100.00;-17125.47;4954111;28;20035;-77
2023/08/20 04:29:53;;;;;;;17.13;10.15;;;;;;;-148.88;100.00;-17125.47;4955475;28;20038;-76
2023/08/20 04:32:18;;;;;;;17.75;10.40;;;;;;;-148.88;100.00;-17125.47;4955306;28;20102;-76
2023/08/20 04:34:43;;;;;;;21.73;11.77;;;;;;;-148.88;100.00;-17125.47;4953971;28;20508;-76
2023/08/20 04:37:09;;;;;;;16.92;10.27;;;;;;;-148.88;100.00;-17125.47;4955559;28;20137;-76
2023/08/20 04:39:34;;;;;;;19.80;10.70;;;;;;;-148.88;100.00;-17125.47;4955953;28;20448;-76
2023/08/20 04:42:00;;;;;;;21.45;11.00;;;;;;;-148.88;100.00;-17125.47;4955505;28;20558;-76
2023/08/20 04:44:25;;;;;;;16.35;10.55;;;;;;;-148.88;100.00;-17125.47;4953916;28;20035;-76
2023/08/20 04:46:50;;;;;;;12.95;10.25;;;;;;;-148.88;100.00;-17125.47;4955174;28;20027;-76
2023/08/20 04:49:16;;;;;;;17.33;10.52;;;;;;;-148.88;100.00;-17125.47;4955370;29;20025;-76
2023/08/20 04:51:42;;;;;;;18.13;10.65;;;;;;;-148.88;100.00;-17125.47;4955071;28;20023;-76
2023/08/20 04:54:07;;;;;;;16.77;10.02;;;;;;;-148.88;100.00;-17125.47;4955068;28;20108;-76
2023/08/20 04:56:32;;;;;;;22.20;11.45;;;;;;;-148.88;100.00;-17125.47;4953456;28;20122;-76
2023/08/20 04:58:58;;;;;;;22.27;12.80;;;;;;;-148.88;100.00;-17125.47;4954809;28;20031;-76
2023/08/20 05:01:23;;;;;;;22.00;14.00;;;;;;;-148.88;100.00;-17125.47;4955396;28;20031;-75
2023/08/20 05:03:48;;;;;;;19.30;12.73;;;;;;;-148.88;100.00;-17125.47;4953864;28;20113;-76
2023/08/20 05:06:14;;;;;;;17.17;12.15;;;;;;;-148.88;100.00;-17125.47;4955150;28;20030;-77
2023/08/20 05:08:39;;;;;;;18.55;11.98;;;;;;;-148.88;100.00;-17125.47;4954924;28;20394;-76
2023/08/20 05:11:04;;;;;;;19.98;11.45;;;;;;;-148.88;100.00;-17125.47;4957044;28;20391;-76
2023/08/20 05:13:30;;;;;;;14.73;9.65;;;;;;;-148.88;100.00;-17125.47;4955779;28;20031;-78
2023/08/20 05:15:55;;;;;;;15.50;9.00;;;;;;;-148.88;100.00;-17125.47;4953564;29;20023;-76
2023/08/20 05:18:20;;;;;;;18.02;8.88;;;;;;;-148.88;100.00;-17125.47;4954814;28;20106;-76
2023/08/20 05:20:46;;;;;;;15.48;8.98;;;;;;;-148.88;100.00;-17125.47;4955394;29;20034;-77
2023/08/20 05:23:11;;;;;;;14.73;7.57;;;;;;;-148.88;100.00;-17125.47;4954781;29;20059;-76
2023/08/20 05:25:36;;;;;;;13.75;8.02;;;;;;;-148.88;100.00;-17125.47;4953711;29;20019;-76
2023/08/20 05:28:02;;;;;;;13.90;6.78;;;;;;;-148.88;100.00;-17125.47;4953459;28;20489;-76
2023/08/20 05:30:28;;;;;;;11.73;6.35;;;;;;;-148.88;100.00;-17125.47;4953698;29;20430;-76
2023/08/20 05:32:53;;;;;;;9.35;5.45;;;;;;;-148.88;100.00;-17125.47;4954698;28;20505;-75
2023/08/20 05:35:18;;;;;;;10.55;5.40;;;;;;;-148.88;100.00;-17125.47;4953299;29;20058;-75
2023/08/20 05:37:44;;;;;;;11.27;5.57;;;;;;;-148.88;100.00;-17125.47;4954763;28;20102;-76
2023/08/20 05:40:09;;;;;;;13.00;5.38;;;;;;;-148.88;100.00;-17125.47;4954713;29;20063;-76
2023/08/20 05:42:35;;;;;;;9.80;5.45;;;;;;;-148.88;100.00;-17125.47;4954542;29;20035;-75
2023/08/20 05:45:00;;;;;;;11.32;5.93;;;;;;;-148.88;100.00;-17125.47;4954519;29;20023;-75
2023/08/20 05:47:25;;;;;;;11.23;5.00;;;;;;;-148.88;100.00;-17125.47;4954477;28;20042;-76
2023/08/20 05:49:51;;;;;;;9.73;4.85;;;;;;;-148.88;100.00;-17125.47;4953220;29;20042;-76
2023/08/20 05:52:16;;;;;;;8.98;5.63;;;;;;;-148.88;100.00;-17125.47;4954797;28;20106;-75
2023/08/20 05:54:42;;;;;;;10.32;5.25;;;;;;;-148.88;100.00;-17125.47;4954932;29;20140;-75
2023/08/20 05:57:07;;;;;;;10.95;5.00;;;;;;;-148.88;100.00;-17125.47;4954158;28;20494;-76
2023/08/20 05:59:33;;;;;;;7.53;4.70;;;;;;;-148.88;100.00;-17125.47;4954671;29;20027;-75
2023/08/20 06:01:58;;;;;;;9.30;4.25;;;;;;;-148.88;100.00;-17125.47;4954354;29;20030;-75
2023/08/20 06:04:23;;;;;;;9.85;4.20;;;;;;;-148.88;100.00;-17125.47;4954874;29;20122;-75
2023/08/20 06:06:49;;;;;;;11.20;4.43;;;;;;;-148.88;100.00;-17125.47;4954273;28;20023;-76
2023/08/20 06:09:14;;;;;;;9.80;4.32;;;;;;;-148.88;100.00;-17125.47;4956254;28;20027;-76
2023/08/20 06:11:39;;;;;;;9.05;4.47;;;;;;;-148.88;100.00;-17125.47;4958410;29;20390;-75
2023/08/20 06:14:05;;;;;;;8.80;4.10;;;;;;;-148.88;100.00;-17125.47;4957898;29;20525;-75
2023/08/20 06:16:30;;;;;;;7.85;4.43;;;;;;;-148.88;100.00;-17125.47;4957920;29;20023;-75
2023/08/20 06:18:57;;;;;;;8.38;4.00;;;;;;;-148.88;100.00;-17125.47;4957628;28;20047;-75
2023/08/20 06:21:22;;;;;;;7.20;4.25;;;;;;;-148.88;100.00;-17125.47;4957660;29;20033;-75
2023/08/20 06:23:48;;;;;;;7.50;4.40;;;;;;;-148.88;100.00;-17125.47;4956385;29;20121;-75
2023/08/20 06:26:13;;;;;;;8.45;4.70;;;;;;;-148.88;100.00;-17125.47;4957631;28;20093;-75
2023/08/20 06:28:38;;;;;;;6.28;3.42;;;;;;;-148.88;100.00;-17125.47;4957995;28;20027;-75
2023/08/20 06:31:04;;;;;;;7.38;4.07;;;;;;;-148.88;100.00;-17125.47;4957566;29;20027;-75
2023/08/20 06:33:29;;;;;;;10.90;4.53;;;;;;;-148.88;100.00;-17125.47;4957458;29;20062;-75
2023/08/20 06:35:54;;;;;;;10.48;4.72;;;;;;;-148.88;100.00;-17125.47;4957345;29;20055;-75
2023/08/20 06:38:20;;;;;;;7.82;3.85;;;;;;;-148.88;100.00;-17125.47;4957439;28;20034;-75
2023/08/20 06:40:45;;;;;;;8.15;3.83;;;;;;;-148.88;100.00;-17125.47;4957879;29;20034;-75
2023/08/20 06:43:10;;;;;;;8.55;3.90;;;;;;;-148.88;100.00;-17125.47;4957758;29;20027;-75
2023/08/20 06:45:36;;;;;;;8.02;3.72;;;;;;;-148.88;100.00;-17125.47;4957511;29;20023;-75
2023/08/20 06:48:01;;;;;;;7.35;4.10;;;;;;;-148.88;100.00;-17125.47;4955886;28;20050;-75
2023/08/20 06:50:26;;;;;;;8.38;4.15;;;;;;;-148.88;100.00;-17125.47;4957167;28;20027;-75
2023/08/20 06:52:52;;;;;;;9.88;4.53;;;;;;;-148.88;100.00;-17125.47;4957233;29;20019;-75
2023/08/20 06:55:17;;;;;;;10.45;4.32;;;;;;;-148.88;100.00;-17125.47;4956695;29;20078;-75
2023/08/20 06:57:42;;;;;;;9.75;4.22;;;;;;;-148.88;100.00;-17125.47;4955386;28;20031;-76
2023/08/20 07:00:08;;;;;;;8.07;4.15;;;;;;;-148.88;100.00;-17125.47;4955511;29;20034;-75
2023/08/20 07:02:33;;;;;;;8.13;4.60;;;;;;;-148.88;100.00;-17125.47;4956688;29;20095;-75
2023/08/20 07:04:59;;;;;;;8.90;3.90;;;;;;;-148.88;100.00;-17125.47;4956638;29;20110;-75
2023/08/20 07:07:24;;;;;;;6.38;4.25;;;;;;;-148.88;100.00;-17125.47;4956737;28;20027;-75
2023/08/20 07:09:49;;;;;;;10.13;4.15;;;;;;;-148.88;100.00;-17125.47;4956614;29;20401;-75
2023/08/20 07:12:15;;;;;;;8.77;4.30;;;;;;;-148.88;100.00;-17125.47;4955638;29;20367;-75
2023/08/20 07:14:40;;;;;;;9.93;4.63;;;;;;;-148.88;100.00;-17125.47;4956431;28;20529;-76
2023/08/20 07:17:05;;;;;;;8.93;4.40;;;;;;;-148.88;100.00;-17125.47;4957001;28;20122;-75
2023/08/20 07:19:31;;;;;;;9.43;4.78;;;;;;;-148.88;100.00;-17125.47;4952670;28;20106;-76
2023/08/20 07:21:56;;;;;;;8.15;5.03;;;;;;;-148.88;100.00;-17125.47;4954965;28;20174;-76
2023/08/20 07:24:29;;;;;;;8.80;5.43;;;;;;;-148.88;100.00;-17125.47;4954874;28;20438;-75
2023/08/20 07:26:59;;;;;;;8.70;5.35;;;;;;;-148.88;100.00;-17125.47;4956171;28;20027;-76
2023/08/20 07:29:25;;;;;;;8.60;4.88;;;;;;;-148.88;100.00;-17125.47;4954458;29;20039;-76
2023/08/20 07:31:50;;;;;;;8.90;5.53;;;;;;;-148.88;100.00;-17125.47;4955874;28;20375;-75
2023/08/20 07:34:15;;;;;;;11.55;5.95;;;;;;;-148.88;100.00;-17125.47;4953760;28;20505;-76
2023/08/20 07:36:41;;;;;;;12.30;6.20;;;;;;;-148.88;100.00;-17125.47;4955081;28;20027;-75
2023/08/20 07:39:06;;;;;;;9.85;5.78;;;;;;;-148.88;100.00;-17125.47;4955476;28;20178;-76
2023/08/20 07:41:32;;;;;;;11.32;6.65;;;;;;;-148.88;100.00;-17125.47;4955999;28;20439;-76
2023/08/20 07:43:57;;;;;;;11.38;6.30;;;;;;;-148.88;100.00;-17125.47;4956083;28;20031;-76
2023/08/20 07:46:25;;;;;;;15.63;6.47;;;;;;;-148.88;100.00;-17125.47;4955904;28;20045;-75
2023/08/20 07:48:50;;;;;;;12.13;7.03;;;;;;;-148.88;100.00;-17125.47;4954264;28;20035;-76
2023/08/20 07:51:15;;;;;;;9.15;6.40;;;;;;;-148.88;100.00;-17125.47;4955809;28;20026;-75
2023/08/20 07:53:41;;;;;;;8.13;6.53;;;;;;;-148.88;100.00;-17125.47;4955832;28;20058;-75
2023/08/20 07:56:06;;;;;;;9.35;6.50;;;;;;;-148.88;100.00;-17125.47;4955793;28;20482;-75
2023/08/20 07:58:32;;;;;;;9.88;6.38;;;;;;;-148.88;100.00;-17125.47;4955536;28;20402;-75
2023/08/20 08:00:58;;;;;;;10.60;6.28;;;;;;;-148.88;100.00;-17125.47;4956214;28;20030;-75
2023/08/20 08:03:25;;;;;;;9.60;6.15;;;;;;;-148.88;100.00;-17125.47;4955976;28;20035;-75
2023/08/20 08:05:50;;;;;;;9.55;7.38;;;;;;;-148.88;100.00;-17125.47;4955918;28;20027;-75
2023/08/20 08:08:17;;;;;;;9.70;7.13;;;;;;;-148.88;100.00;-17125.47;4953520;28;20027;-76
2023/08/20 08:10:46;;;;;;;9.13;7.28;;;;;;;-148.88;100.00;-17125.47;4953565;28;20019;-76
2023/08/20 08:13:12;;;;;;;12.45;7.95;;;;;;;-148.88;100.00;-17125.47;4955610;28;20035;-75
2023/08/20 08:15:38;;;;;;;10.52;7.50;;;;;;;-148.88;100.00;-17125.47;4953801;28;20034;-76
2023/08/20 08:18:05;;;;;;;12.98;7.63;;;;;;;-148.88;100.00;-17125.47;4955498;28;20055;-75
2023/08/20 08:20:30;;;;;;;11.27;7.43;;;;;;;-148.88;100.00;-17125.47;4952949;28;20537;-76
2023/08/20 08:22:56;;;;;;;9.45;6.97;;;;;;;-148.88;100.00;-17125.47;4955314;28;20058;-75
2023/08/20 08:25:21;;;;;;;10.73;7.38;;;;;;;-148.88;100.00;-17125.47;4955313;28;20058;-75
2023/08/20 08:27:47;;;;;;;10.43;7.68;;;;;;;-148.88;100.00;-17125.47;4955342;28;20078;-75
2023/08/20 08:30:12;;;;;;;10.35;7.28;;;;;;;-148.88;100.00;-17125.47;4955220;28;20062;-75
2023/08/20 08:32:38;;;;;;;9.25;7.40;;;;;;;-148.88;100.00;-17125.47;4954856;28;20019;-75
2023/08/20 08:35:03;;;;;;;12.10;7.32;;;;;;;-148.88;100.00;-17125.47;4953906;28;20051;-75
2023/08/20 08:37:29;;;;;;;13.40;8.38;;;;;;;-148.88;100.00;-17125.47;4953946;28;20027;-75
2023/08/20 08:39:54;;;;;;;10.18;9.07;;;;;;;-148.88;100.00;-17125.47;4955243;28;20047;-75
2023/08/20 08:42:23;;;;;;;11.98;10.02;;;;;;;-148.88;100.00;-17125.47;4955316;28;20034;-75
2023/08/20 08:44:50;;;;;;;10.13;8.45;;;;;;;-148.88;100.00;-17125.47;4955324;28;20029;-76
2023/08/20 08:47:16;;;;;;;10.18;8.90;;;;;;;-148.88;100.00;-17125.47;4955092;28;20035;-76
2023/08/20 08:49:43;;;;;;;12.68;9.32;;;;;;;-148.88;100.00;-17125.47;4955330;28;20470;-75
2023/08/20 08:52:10;;;;;;;15.07;10.20;;;;;;;-148.88;100.00;-17125.47;4955102;28;20479;-75
2023/08/20 08:54:36;;;;;;;10.60;8.18;;;;;;;-148.88;100.00;-17125.47;4953687;29;20019;-75
2023/08/20 08:57:02;;;;;;;12.20;8.13;;;;;;;-148.88;100.00;-17125.47;4954794;28;20122;-74
2023/08/20 08:59:27;;;;;;;11.95;8.00;;;;;;;-148.88;100.00;-17125.47;4955187;28;20027;-75
2023/08/20 09:01:54;;;;;;;13.23;9.38;;;;;;;-148.88;100.00;-17125.47;4954894;28;20034;-74
2023/08/20 09:04:19;;;;;;;10.70;7.65;;;;;;;-148.88;99.77;-17125.47;4954966;28;20027;-75
2023/08/20 09:06:49;;;;;;;10.25;6.95;;;;;;;-148.88;97.86;-17125.47;4955362;28;20113;-75
2023/08/20 09:09:16;;;;;;;9.27;8.23;;;;;;;-148.88;99.11;-17125.47;4953625;28;20125;-75
2023/08/20 09:11:42;;;;;;;9.45;7.40;;;;;;;-148.88;97.13;-17125.47;4954838;28;20122;-75
2023/08/20 09:14:07;;;;;;;11.70;7.88;;;;;;;-148.88;100.00;-17125.47;4953570;28;20442;-75
2023/08/20 09:16:33;;;;;;;11.57;7.70;;;;;;;-148.88;98.16;-17125.47;4953390;29;20553;-75
2023/08/20 09:19:00;;;;;;;7.57;6.38;;;;;;;-148.88;96.66;-17125.47;4959069;28;20086;-75
2023/08/20 09:21:29;;;;;;;8.77;7.18;;;;;;;-148.88;96.59;-17125.47;4961305;28;20023;-75
2023/08/20 09:23:56;;;;;;;7.80;5.30;;;;;;;-148.88;88.89;-17125.47;4955047;28;20059;-75
2023/08/20 09:26:22;;;;;;;7.05;5.45;;;;;;;-148.88;93.66;-17125.47;4953568;28;20027;-75
2023/08/20 09:28:47;;;;;;;7.93;5.78;;;;;;;-148.88;88.63;-17125.47;4954793;28;20024;-75
2023/08/20 09:31:13;;;;;;;6.40;5.43;;;;;;;-148.88;87.66;-17125.47;4955010;28;20034;-75
2023/08/20 09:33:52;;;;;;;9.20;4.95;;;;;;;-148.88;85.88;-17125.47;4954686;28;20028;-75
2023/08/20 09:36:18;;;;;;;9.50;5.78;;;;;;;-148.88;85.26;-17125.47;4954640;28;20118;-75
2023/08/20 09:38:44;;;;;;;7.15;5.53;;;;;;;-148.88;90.39;-17125.47;4954549;28;20102;-75
2023/08/20 09:41:11;;;;;;;8.93;5.97;;;;;;;-148.88;89.81;-17125.47;4954846;28;20106;-75
2023/08/20 09:43:38;;;;;;;8.52;5.40;;;;;;;-148.88;86.05;-17125.47;4955905;28;20482;-74
2023/08/20 09:46:05;;;;;;;10.45;5.95;;;;;;;-148.88;84.04;-17125.47;4958384;28;20082;-75
2023/08/20 09:48:37;;;;;;;7.18;5.53;;;;;;;-148.88;83.95;-17125.47;4958260;28;20047;-74
2023/08/20 09:51:10;;;;;;;7.72;5.13;;;;;;;-148.88;83.50;-17125.47;4958515;28;20027;-75
2023/08/20 09:53:44;;;;;;;;;;;;;;;-148.88;82.92;-17125.47;4957349;29;20438;-75
2023/08/20 09:56:21;;;;;;;7.57;5.20;;;;;;;-148.88;79.37;-17125.47;4956920;28;19921;-75
2023/08/20 09:58:50;;;;;;;8.35;5.32;;;;;;;-148.88;82.23;-17125.47;4958189;28;20041;-75
2023/08/20 10:01:16;;;;;;;5.97;4.50;;;;;;;-148.88;81.71;-17125.47;4958152;28;20394;-75
2023/08/20 10:03:42;;;;;;;6.22;4.60;;;;;;;-148.88;84.52;-17125.47;4958148;28;20087;-75
2023/08/20 10:06:09;;;;;;;6.93;4.78;;;;;;;-148.88;84.24;-17125.47;4957870;28;20098;-75
2023/08/20 10:08:34;;;;;;;6.82;5.40;;;;;;;-148.88;83.38;-17125.47;4957765;28;20490;-75
2023/08/20 10:10:59;;;;;;;5.82;4.72;;;;;;;-148.88;85.33;-17125.47;4957855;28;20078;-75
2023/08/20 10:13:25;;;;;;;6.50;4.60;;;;;;;-148.88;81.14;-17125.47;4957899;28;20031;-75
2023/08/20 10:15:51;;;;;;;7.40;4.72;;;;;;;-148.88;80.79;-17125.47;4958003;28;20059;-75
2023/08/20 10:18:19;;;;;;;7.90;4.80;;;;;;;-148.88;79.99;-17125.47;4957978;28;20027;-75
2023/08/20 10:20:45;;;;;;;5.40;4.20;;;;;;;-148.88;77.25;-17125.47;4957755;28;20041;-75
2023/08/20 10:23:12;;;;;;;5.57;4.40;;;;;;;-148.88;79.45;-17125.47;4957806;28;20106;-74
2023/08/20 10:25:46;;;;;;;5.93;4.45;;;;;;;-148.88;83.16;-17125.47;4957627;29;20033;-74
2023/08/20 10:28:28;;;;;;;5.30;4.50;;;;;;;-148.88;81.84;-17125.47;4956274;28;20027;-75
2023/08/20 10:31:13;;;;;;;7.75;5.25;;;;;;;-148.88;80.96;-17125.47;4957649;28;20055;-74
2023/08/20 10:33:56;;;;;;;5.95;4.70;;;;;;;-148.88;77.93;-17125.47;4958034;28;20050;-75
2023/08/20 10:36:28;;;;;;;6.47;4.82;;;;;;;-148.88;77.92;-17125.47;4956316;28;20028;-75
2023/08/20 10:38:55;;;;;;;8.50;5.05;;;;;;;-148.88;75.56;-17125.47;4957466;28;20031;-75
2023/08/20 10:41:30;;;;;;;8.05;4.68;;;;;;;-148.88;74.17;-17125.47;4956386;28;20128;-75
2023/08/20 10:44:00;;;;;;;5.28;4.43;;;;;;;-148.88;73.67;-17125.47;4957578;28;20517;-75
2023/08/20 10:46:30;;;;;;;8.43;4.10;;;;;;;-148.88;67.81;-17125.47;4957675;28;20045;-75
2023/08/20 10:49:01;;;;;;;5.22;3.80;;;;;;;-148.88;68.79;-17125.47;4957470;28;20027;-75
2023/08/20 10:51:35;;;;;;;6.00;4.03;;;;;;;-148.88;66.18;-17125.47;4957280;28;20042;-75
2023/08/20 10:54:00;;;;;;;5.18;3.92;;;;;;;-148.88;61.93;-17125.47;4956880;28;20027;-75